createdAt,value
2023-05-02T00:01:48.770Z,56.45
2023-05-02T00:03:50.426Z,56.29
2023-05-02T00:05:52.070Z,56.27
2023-05-02T00:07:54.326Z,56.29
2023-05-02T00:09:55.891Z,56.58
2023-05-02T00:11:57.594Z,56.58
2023-05-02T00:13:59.207Z,56.99
2023-05-02T00:16:00.791Z,56.87
2023-05-02T00:18:02.545Z,56.57
2023-05-02T00:20:05.037Z,56.44
2023-05-02T00:22:06.610Z,56.09
2023-05-02T00:24:08.198Z,56.36
2023-05-02T00:26:10.226Z,56.73
2023-05-02T00:28:11.839Z,56.75
2023-05-02T00:30:14.243Z,56.82
2023-05-02T00:32:15.829Z,57.04
2023-05-02T00:34:17.425Z,56.32
2023-05-02T00:36:20.254Z,56.26
2023-05-02T00:38:21.951Z,55.92
2023-05-02T00:40:23.585Z,56.20
2023-05-02T00:42:25.201Z,56.37
2023-05-02T00:44:26.822Z,56.25
2023-05-02T00:46:28.520Z,56.46
2023-05-02T00:48:30.371Z,56.40
2023-05-02T00:50:32.904Z,56.50
2023-05-02T00:52:34.535Z,56.77
2023-05-02T00:54:39.361Z,56.20
2023-05-02T00:56:41.101Z,56.28
2023-05-02T00:58:43.580Z,56.54
2023-05-02T01:01:24.882Z,56.48
2023-05-02T01:03:50.707Z,56.89
2023-05-02T01:06:08.799Z,56.88
2023-05-02T01:08:37.365Z,56.82
2023-05-02T01:10:57.453Z,57.51
2023-05-02T01:13:02.306Z,57.71
2023-05-02T01:15:07.827Z,57.52
2023-05-02T01:17:12.383Z,57.72
2023-05-02T01:19:22.561Z,57.75
2023-05-02T01:21:24.330Z,57.60
2023-05-02T01:23:34.825Z,57.68
2023-05-02T01:26:02.496Z,57.75
2023-05-02T01:28:26.059Z,58.28
2023-05-02T01:30:29.550Z,58.48
2023-05-02T01:32:33.617Z,59.12
2023-05-02T01:34:37.449Z,59.53
2023-05-02T01:36:46.710Z,59.48
2023-05-02T01:38:50.070Z,59.66
2023-05-02T01:40:52.107Z,59.64
2023-05-02T01:42:54.443Z,60.45
2023-05-02T01:44:56.900Z,60.90
2023-05-02T01:47:00.004Z,61.14
2023-05-02T01:49:03.741Z,60.58
2023-05-02T01:51:05.775Z,60.72
2023-05-02T01:53:08.415Z,61.08
2023-05-02T01:55:13.173Z,60.89
2023-05-02T01:57:15.823Z,61.39
2023-05-02T01:59:20.283Z,61.14
2023-05-02T02:01:25.038Z,61.44
2023-05-02T02:03:28.731Z,61.42
2023-05-02T02:05:31.021Z,61.21
2023-05-02T02:07:32.642Z,61.62
2023-05-02T02:09:34.527Z,61.37
2023-05-02T02:12:09.905Z,61.50
2023-05-02T02:14:19.007Z,61.51
2023-05-02T02:16:25.123Z,61.96
2023-05-02T02:18:28.143Z,61.50
2023-05-02T02:20:30.174Z,62.01
2023-05-02T02:22:35.017Z,61.67
2023-05-02T02:24:38.013Z,61.69
2023-05-02T02:26:39.727Z,61.80
2023-05-02T02:28:41.361Z,61.86
2023-05-02T02:30:42.993Z,61.81
2023-05-02T02:32:44.610Z,61.95
2023-05-02T02:34:46.268Z,62.21
2023-05-02T02:36:58.300Z,61.98
2023-05-02T02:39:20.688Z,62.16
2023-05-02T02:41:28.642Z,61.53
2023-05-02T02:44:08.106Z,62.04
2023-05-02T02:46:43.891Z,61.69
2023-05-02T02:48:48.649Z,62.02
2023-05-02T02:50:59.637Z,62.10
2023-05-02T02:53:10.065Z,62.13
2023-05-02T02:55:29.758Z,61.72
2023-05-02T02:57:41.378Z,62.11
2023-05-02T02:59:49.998Z,62.12
2023-05-02T03:02:02.713Z,62.02
2023-05-02T03:04:06.617Z,62.14
2023-05-02T03:06:08.149Z,61.68
2023-05-02T03:08:10.108Z,61.89
2023-05-02T03:10:11.972Z,61.79
2023-05-02T03:12:13.833Z,61.61
2023-05-02T03:14:15.506Z,61.38
2023-05-02T03:16:33.017Z,61.75
2023-05-02T03:18:34.756Z,61.75
2023-05-02T03:20:36.378Z,61.61
2023-05-02T03:22:38.479Z,61.40
2023-05-02T03:24:40.147Z,61.55
2023-05-02T03:26:41.771Z,61.21
2023-05-02T03:28:46.640Z,61.38
2023-05-02T03:30:48.293Z,61.03
2023-05-02T03:32:50.006Z,61.59
2023-05-02T03:34:51.632Z,61.47
2023-05-02T03:36:53.249Z,61.27
2023-05-02T03:38:54.905Z,60.99
2023-05-02T03:40:59.127Z,60.76
2023-05-02T03:43:00.830Z,60.49
2023-05-02T03:45:02.439Z,60.59
2023-05-02T03:47:04.227Z,60.53
2023-05-02T03:49:06.020Z,60.22
2023-05-02T03:51:10.691Z,60.26
2023-05-02T03:53:12.397Z,59.80
2023-05-02T03:55:14.070Z,60.03
2023-05-02T03:57:15.650Z,60.34
2023-05-02T03:59:17.298Z,60.62
2023-05-02T04:01:19.100Z,60.47
2023-05-02T04:03:21.131Z,60.22
2023-05-02T04:05:22.780Z,60.30
2023-05-02T04:07:25.896Z,59.84
2023-05-02T04:09:27.512Z,59.65
2023-05-02T04:11:29.153Z,60.01
2023-05-02T04:13:30.835Z,59.90
2023-05-02T04:15:32.577Z,60.32
2023-05-02T04:17:34.302Z,60.54
2023-05-02T04:19:35.866Z,60.61
2023-05-02T04:21:37.591Z,60.60
2023-05-02T04:23:39.612Z,60.65
2023-05-02T04:25:41.290Z,61.13
2023-05-02T04:27:43.234Z,61.11
2023-05-02T04:29:48.496Z,61.33
2023-05-02T04:31:51.266Z,61.00
2023-05-02T04:33:53.153Z,60.68
2023-05-02T04:35:54.757Z,60.61
2023-05-02T04:37:56.955Z,60.54
2023-05-02T04:39:58.703Z,61.26
2023-05-02T04:42:01.473Z,60.94
2023-05-02T04:44:03.288Z,61.17
2023-05-02T04:46:05.041Z,61.16
2023-05-02T04:48:06.771Z,60.81
2023-05-02T04:50:09.256Z,60.33
2023-05-02T04:52:11.037Z,59.56
2023-05-02T04:54:12.952Z,59.31
2023-05-02T04:56:14.563Z,58.71
2023-05-02T04:58:16.376Z,58.63
2023-05-02T05:00:18.169Z,58.05
2023-05-02T05:02:19.928Z,57.84
2023-05-02T05:04:21.741Z,58.11
2023-05-02T05:06:24.380Z,58.11
2023-05-02T05:08:26.103Z,57.34
2023-05-02T05:10:27.702Z,57.32
2023-05-02T05:12:29.329Z,57.70
2023-05-02T05:14:31.516Z,57.70
2023-05-02T05:16:33.521Z,57.66
2023-05-02T05:18:44.351Z,57.73
2023-05-02T05:20:45.898Z,57.36
2023-05-02T05:22:47.532Z,56.80
2023-05-02T05:24:53.710Z,57.33
2023-05-02T05:26:55.278Z,56.80
2023-05-02T05:28:56.873Z,56.93
2023-05-02T05:30:58.492Z,56.99
2023-05-02T05:33:00.463Z,57.07
2023-05-02T05:35:02.438Z,56.98
2023-05-02T05:37:04.065Z,56.76
2023-05-02T05:39:05.673Z,56.79
2023-05-02T05:41:11.144Z,56.63
2023-05-02T05:43:13.318Z,55.93
2023-05-02T05:45:16.456Z,55.39
2023-05-02T05:47:24.146Z,55.58
2023-05-02T05:49:26.140Z,55.74
2023-05-02T05:51:27.977Z,55.83
2023-05-02T05:53:29.567Z,55.58
2023-05-02T05:55:31.237Z,55.55
2023-05-02T05:57:32.886Z,55.93
2023-05-02T05:59:36.418Z,55.17
2023-05-02T06:01:38.255Z,55.09
2023-05-02T06:03:39.943Z,55.25
2023-05-02T06:05:41.709Z,55.11
2023-05-02T06:07:43.320Z,54.89
2023-05-02T06:09:45.026Z,55.02
2023-05-02T06:11:46.605Z,54.42
2023-05-02T06:13:48.242Z,54.45
2023-05-02T06:15:49.827Z,53.49
2023-05-02T06:17:52.162Z,53.88
2023-05-02T06:19:53.922Z,53.45
2023-05-02T06:21:55.692Z,53.17
2023-05-02T06:23:57.374Z,52.62
2023-05-02T06:26:00.763Z,52.66
2023-05-02T06:28:02.359Z,52.29
2023-05-02T06:30:04.391Z,51.86
2023-05-02T06:32:06.660Z,52.30
2023-05-02T06:34:08.396Z,51.96
2023-05-02T06:36:10.032Z,50.87
2023-05-02T06:38:11.616Z,51.68
2023-05-02T06:40:13.865Z,51.36
2023-05-02T06:42:15.597Z,51.45
2023-05-02T06:44:17.246Z,50.85
2023-05-02T06:46:20.432Z,50.75
2023-05-02T06:48:22.494Z,50.98
2023-05-02T06:50:24.116Z,50.92
2023-05-02T06:52:25.772Z,50.47
2023-05-02T06:54:27.418Z,50.25
2023-05-02T06:56:28.963Z,49.41
2023-05-02T06:58:31.000Z,49.33
2023-05-02T07:00:32.783Z,49.92
2023-05-02T07:02:34.487Z,49.30
2023-05-02T07:04:36.210Z,49.47
2023-05-02T07:06:37.999Z,48.83
2023-05-02T07:08:39.646Z,48.21
2023-05-02T07:10:41.400Z,48.29
2023-05-02T07:12:42.947Z,47.61
2023-05-02T07:14:46.853Z,46.92
2023-05-02T07:16:48.650Z,46.94
2023-05-02T07:18:50.403Z,46.96
2023-05-02T07:20:51.979Z,46.77
2023-05-02T07:22:53.960Z,46.47
2023-05-02T07:25:01.207Z,46.12
2023-05-02T07:27:03.376Z,46.14
2023-05-02T07:29:06.902Z,46.12
2023-05-02T07:31:08.506Z,45.65
2023-05-02T07:33:10.062Z,45.25
2023-05-02T07:35:11.703Z,45.26
2023-05-02T07:37:13.300Z,45.05
2023-05-02T07:39:15.050Z,45.93
2023-05-02T07:41:16.811Z,45.26
2023-05-02T07:43:18.412Z,45.13
2023-05-02T07:45:20.152Z,44.63
2023-05-02T07:47:21.862Z,44.40
2023-05-02T07:49:23.519Z,44.37
2023-05-02T07:51:26.352Z,43.61
2023-05-02T07:53:27.937Z,43.95
2023-05-02T07:55:30.726Z,43.51
2023-05-02T07:57:32.409Z,43.48
2023-05-02T07:59:34.148Z,44.49
2023-05-02T08:01:36.213Z,43.43
2023-05-02T08:03:38.053Z,43.01
2023-05-02T08:05:39.919Z,42.52
2023-05-02T08:07:41.587Z,42.49
2023-05-02T08:09:43.232Z,43.26
2023-05-02T08:11:44.895Z,43.47
2023-05-02T08:13:46.579Z,43.99
2023-05-02T08:15:48.352Z,43.07
2023-05-02T08:17:50.015Z,42.97
2023-05-02T08:19:51.683Z,43.32
2023-05-02T08:21:56.418Z,43.41
2023-05-02T08:23:58.915Z,43.63
2023-05-02T08:26:00.753Z,43.79
2023-05-02T08:28:02.314Z,44.24
2023-05-02T08:30:04.616Z,43.96
2023-05-02T08:32:06.533Z,43.95
2023-05-02T08:34:08.291Z,44.17
2023-05-02T08:36:14.374Z,43.83
2023-05-02T08:38:15.958Z,43.69
2023-05-02T08:40:24.696Z,43.31
2023-05-02T08:42:33.692Z,42.48
2023-05-02T08:44:35.368Z,42.67
2023-05-02T08:46:41.274Z,42.58
2023-05-02T08:48:44.491Z,41.89
2023-05-02T08:50:48.503Z,41.68
2023-05-02T08:52:50.844Z,41.88
2023-05-02T08:54:52.755Z,41.07
2023-05-02T08:56:54.840Z,41.12
2023-05-02T08:58:56.451Z,41.42
2023-05-02T09:01:01.466Z,41.45
2023-05-02T09:03:06.569Z,41.95
2023-05-02T09:05:08.580Z,42.07
2023-05-02T09:07:10.956Z,42.32
2023-05-02T09:09:12.594Z,42.06
2023-05-02T09:11:14.450Z,41.72
2023-05-02T09:13:32.219Z,41.12
2023-05-02T09:15:33.780Z,41.18
2023-05-02T09:17:47.039Z,41.49
2023-05-02T09:20:00.234Z,40.74
2023-05-02T09:22:02.217Z,40.80
2023-05-02T09:24:16.975Z,40.40
2023-05-02T09:26:22.204Z,40.00
2023-05-02T09:28:40.053Z,40.08
2023-05-02T09:30:41.672Z,40.05
2023-05-02T09:32:47.107Z,40.05
2023-05-02T09:35:07.768Z,39.72
2023-05-02T09:37:10.388Z,39.25
2023-05-02T09:39:16.891Z,38.82
2023-05-02T09:41:20.015Z,39.15
2023-05-02T09:43:21.904Z,39.38
2023-05-02T09:45:26.798Z,40.01
2023-05-02T09:47:28.469Z,40.58
2023-05-02T09:49:41.097Z,40.00
2023-05-02T09:51:44.150Z,39.94
2023-05-02T09:53:46.572Z,39.27
2023-05-02T09:55:48.705Z,39.50
2023-05-02T09:57:50.398Z,38.83
2023-05-02T10:00:00.892Z,39.27
2023-05-02T10:02:04.646Z,38.87
2023-05-02T10:04:06.893Z,38.95
2023-05-02T10:06:09.733Z,38.41
2023-05-02T10:08:12.506Z,37.72
2023-05-02T10:10:17.821Z,37.60
2023-05-02T10:12:22.556Z,37.39
2023-05-02T10:14:27.864Z,37.25
2023-05-02T10:16:31.603Z,37.52
2023-05-02T10:18:57.430Z,37.70
2023-05-02T10:21:01.948Z,37.53
2023-05-02T10:23:03.766Z,37.14
2023-05-02T10:25:06.278Z,36.54
2023-05-02T10:27:08.142Z,36.29
2023-05-02T10:29:10.888Z,35.70
2023-05-02T10:31:14.028Z,35.50
2023-05-02T10:33:16.665Z,35.12
2023-05-02T10:35:18.331Z,35.49
2023-05-02T10:37:20.170Z,35.91
2023-05-02T10:39:24.547Z,36.07
2023-05-02T10:41:28.102Z,34.88
2023-05-02T10:43:31.650Z,34.08
2023-05-02T10:45:35.276Z,33.93
2023-05-02T10:47:36.933Z,34.34
2023-05-02T10:49:56.863Z,34.10
2023-05-02T10:51:59.059Z,34.32
2023-05-02T10:54:25.562Z,33.45
2023-05-02T10:56:29.174Z,33.45
2023-05-02T10:58:31.444Z,33.48
2023-05-02T11:00:34.415Z,32.91
2023-05-02T11:02:38.010Z,32.64
2023-05-02T11:04:59.956Z,32.53
2023-05-02T11:07:02.342Z,32.52
2023-05-02T11:09:13.852Z,31.87
2023-05-02T11:11:43.608Z,32.62
2023-05-02T11:13:49.248Z,33.90
2023-05-02T11:15:51.360Z,33.49
2023-05-02T11:18:02.468Z,33.04
2023-05-02T11:20:07.690Z,33.45
2023-05-02T11:22:18.234Z,33.06
2023-05-02T11:24:49.247Z,32.44
2023-05-02T11:26:50.909Z,33.39
2023-05-02T11:28:52.865Z,32.94
2023-05-02T11:30:55.953Z,32.83
2023-05-02T11:32:59.416Z,32.43
2023-05-02T11:35:01.692Z,32.88
2023-05-02T11:37:14.635Z,33.15
2023-05-02T11:39:20.224Z,32.83
2023-05-02T11:41:21.795Z,33.48
2023-05-02T11:43:25.356Z,32.78
2023-05-02T11:45:34.324Z,33.34
2023-05-02T11:47:36.068Z,33.33
2023-05-02T11:49:37.822Z,33.16
2023-05-02T11:51:39.492Z,33.68
2023-05-02T11:53:41.685Z,33.71
2023-05-02T11:55:50.427Z,33.57
2023-05-02T11:57:52.170Z,33.27
2023-05-02T11:59:55.149Z,33.60
2023-05-02T12:01:58.178Z,33.02
2023-05-02T12:04:07.962Z,33.35
2023-05-02T12:06:15.256Z,33.55
2023-05-02T12:08:25.547Z,33.65
2023-05-02T12:10:36.982Z,32.94
2023-05-02T12:12:39.808Z,33.03
2023-05-02T12:14:41.507Z,32.97
2023-05-02T12:16:43.151Z,32.45
2023-05-02T12:18:45.325Z,32.54
2023-05-02T12:20:47.745Z,33.20
2023-05-02T12:22:49.584Z,32.92
2023-05-02T12:24:53.430Z,33.08
2023-05-02T12:27:14.139Z,32.56
2023-05-02T12:29:16.199Z,32.96
2023-05-02T12:31:18.038Z,32.40
2023-05-02T12:33:19.696Z,32.50
2023-05-02T12:35:23.248Z,33.13
2023-05-02T12:37:25.289Z,32.83
2023-05-02T12:39:36.623Z,32.36
2023-05-02T12:41:39.681Z,32.49
2023-05-02T12:43:48.787Z,32.13
2023-05-02T12:45:53.865Z,32.55
2023-05-02T12:47:56.000Z,32.80
2023-05-02T12:49:59.354Z,31.76
2023-05-02T12:52:01.360Z,32.81
2023-05-02T12:54:03.838Z,32.83
2023-05-02T12:56:06.052Z,31.97
2023-05-02T12:58:09.649Z,32.13
2023-05-02T13:00:11.868Z,31.45
2023-05-02T13:02:13.468Z,31.19
2023-05-02T13:04:15.151Z,31.11
2023-05-02T13:06:17.561Z,31.05
2023-05-02T13:08:19.424Z,31.38
2023-05-02T13:10:20.992Z,30.98
2023-05-02T13:12:22.635Z,30.93
2023-05-02T13:14:24.464Z,31.68
2023-05-02T13:16:26.193Z,31.45
2023-05-02T13:18:30.839Z,31.34
2023-05-02T13:20:32.507Z,31.66
2023-05-02T13:22:34.350Z,31.39
2023-05-02T13:24:36.106Z,31.71
2023-05-02T13:26:37.730Z,30.76
2023-05-02T13:28:39.283Z,31.33
2023-05-02T13:30:41.133Z,30.93
2023-05-02T13:32:42.884Z,30.76
2023-05-02T13:34:45.190Z,31.17
2023-05-02T13:36:46.773Z,30.95
2023-05-02T13:38:48.354Z,30.63
2023-05-02T13:40:50.268Z,30.75
2023-05-02T13:42:51.861Z,30.98
2023-05-02T13:44:53.544Z,30.92
2023-05-02T13:46:55.348Z,31.10
2023-05-02T13:48:56.943Z,30.82
2023-05-02T13:50:58.708Z,30.11
2023-05-02T13:53:00.341Z,30.25
2023-05-02T13:55:01.924Z,30.67
2023-05-02T13:57:04.286Z,30.40
2023-05-02T13:59:08.262Z,30.35
2023-05-02T14:01:10.790Z,30.13
2023-05-02T14:03:13.514Z,30.23
2023-05-02T14:05:15.575Z,30.30
2023-05-02T14:07:17.261Z,30.10
2023-05-02T14:09:18.868Z,30.43
2023-05-02T14:11:39.252Z,30.04
2023-05-02T14:13:40.933Z,29.57
2023-05-02T14:15:42.612Z,30.05
2023-05-02T14:17:44.225Z,29.96
2023-05-02T14:19:45.955Z,29.52
2023-05-02T14:21:47.730Z,29.43
2023-05-02T14:23:49.349Z,30.08
2023-05-02T14:25:50.961Z,30.27
2023-05-02T14:27:52.500Z,30.01
2023-05-02T14:29:54.138Z,29.26
2023-05-02T14:31:55.795Z,29.83
2023-05-02T14:33:57.415Z,29.65
2023-05-02T14:35:59.043Z,29.87
2023-05-02T14:38:01.328Z,29.19
2023-05-02T14:40:03.329Z,29.51
2023-05-02T14:42:05.803Z,28.92
2023-05-02T14:44:07.435Z,29.16
2023-05-02T14:46:09.102Z,29.17
2023-05-02T14:48:11.813Z,29.47
2023-05-02T14:50:13.494Z,29.35
2023-05-02T14:52:15.074Z,28.83
2023-05-02T14:54:16.969Z,29.17
2023-05-02T14:56:18.927Z,29.19
2023-05-02T14:58:20.972Z,29.49
2023-05-02T15:00:22.688Z,29.30
2023-05-02T15:02:24.438Z,29.19
2023-05-02T15:04:27.456Z,29.32
2023-05-02T15:06:31.657Z,29.38
2023-05-02T15:08:33.354Z,29.22
2023-05-02T15:10:39.023Z,29.50
2023-05-02T15:12:40.633Z,29.27
2023-05-02T15:14:42.348Z,28.86
2023-05-02T15:16:44.093Z,29.33
2023-05-02T15:18:45.833Z,29.24
2023-05-02T15:20:48.500Z,29.11
2023-05-02T15:22:50.037Z,29.02
2023-05-02T15:24:51.711Z,29.39
2023-05-02T15:26:53.414Z,29.66
2023-05-02T15:28:55.780Z,29.32
2023-05-02T15:30:57.338Z,29.06
2023-05-02T15:32:59.059Z,29.40
2023-05-02T15:35:00.770Z,28.95
2023-05-02T15:37:02.406Z,29.26
2023-05-02T15:39:04.835Z,28.73
2023-05-02T15:41:08.073Z,28.90
2023-05-02T15:43:09.648Z,28.67
2023-05-02T15:45:13.365Z,28.24
2023-05-02T15:47:14.949Z,28.42
2023-05-02T15:49:17.076Z,28.65
2023-05-02T15:51:18.900Z,28.71
2023-05-02T15:53:23.775Z,28.34
2023-05-02T15:55:25.387Z,28.34
2023-05-02T15:57:27.188Z,28.33
2023-05-02T15:59:28.833Z,28.57
2023-05-02T16:01:30.561Z,27.80
2023-05-02T16:03:34.238Z,28.05
2023-05-02T16:05:36.322Z,28.22
2023-05-02T16:07:38.761Z,28.60
2023-05-02T16:09:41.880Z,28.29
2023-05-02T16:11:44.438Z,28.27
2023-05-02T16:13:46.051Z,28.47
2023-05-02T16:15:48.473Z,28.47
2023-05-02T16:17:50.707Z,28.36
2023-05-02T16:19:52.481Z,28.42
2023-05-02T16:21:54.065Z,28.59
2023-05-02T16:23:55.724Z,28.90
2023-05-02T16:25:58.716Z,29.40
2023-05-02T16:28:00.333Z,29.76
2023-05-02T16:30:02.350Z,29.74
2023-05-02T16:32:04.479Z,29.59
2023-05-02T16:34:06.056Z,29.93
2023-05-02T16:36:07.894Z,29.96
2023-05-02T16:38:09.475Z,30.32
2023-05-02T16:40:12.302Z,30.49
2023-05-02T16:42:13.882Z,30.86
2023-05-02T16:44:15.499Z,30.78
2023-05-02T16:46:18.081Z,30.69
2023-05-02T16:48:22.908Z,30.99
2023-05-02T16:50:24.778Z,30.93
2023-05-02T16:52:26.652Z,31.11
2023-05-02T16:54:28.219Z,31.40
2023-05-02T16:56:30.138Z,31.60
2023-05-02T16:58:31.682Z,31.65
2023-05-02T17:00:34.115Z,31.79
2023-05-02T17:02:35.813Z,31.91
2023-05-02T17:04:37.698Z,31.92
2023-05-02T17:06:39.373Z,32.21
2023-05-02T17:08:41.081Z,32.13
2023-05-02T17:10:42.736Z,32.46
2023-05-02T17:12:44.497Z,32.61
2023-05-02T17:14:46.218Z,32.80
2023-05-02T17:16:48.466Z,32.66
2023-05-02T17:18:50.068Z,33.25
2023-05-02T17:20:51.605Z,33.21
2023-05-02T17:22:54.411Z,33.49
2023-05-02T17:24:56.346Z,33.45
2023-05-02T17:26:58.089Z,33.64
2023-05-02T17:28:59.705Z,33.53
2023-05-02T17:31:01.263Z,33.61
2023-05-02T17:33:02.932Z,33.86
2023-05-02T17:35:04.892Z,34.06
2023-05-02T17:37:07.437Z,33.82
2023-05-02T17:39:10.376Z,34.05
2023-05-02T17:41:12.279Z,34.20
2023-05-02T17:43:13.837Z,34.33
2023-05-02T17:45:15.562Z,34.40
2023-05-02T17:47:18.224Z,34.21
2023-05-02T17:49:19.838Z,34.30
2023-05-02T17:51:21.489Z,34.42
2023-05-02T17:53:23.194Z,34.65
2023-05-02T17:55:24.772Z,34.87
2023-05-02T17:57:26.893Z,34.86
2023-05-02T17:59:28.717Z,34.65
2023-05-02T18:01:30.892Z,35.15
2023-05-02T18:03:32.597Z,34.97
2023-05-02T18:05:38.726Z,34.95
2023-05-02T18:07:40.296Z,35.13
2023-05-02T18:09:41.955Z,35.34
2023-05-02T18:11:43.877Z,35.42
2023-05-02T18:13:45.861Z,35.29
2023-05-02T18:15:57.703Z,35.77
2023-05-02T18:17:59.366Z,35.99
2023-05-02T18:20:04.556Z,35.99
2023-05-02T18:22:07.329Z,36.26
2023-05-02T18:24:08.950Z,36.43
2023-05-02T18:26:13.654Z,36.34
2023-05-02T18:28:15.385Z,36.40
2023-05-02T18:30:17.048Z,36.41
2023-05-02T18:32:18.692Z,36.51
2023-05-02T18:34:20.335Z,36.61
2023-05-02T18:36:27.183Z,36.65
2023-05-02T18:38:28.823Z,36.77
2023-05-02T18:40:31.356Z,36.92
2023-05-02T18:42:33.069Z,37.12
2023-05-02T18:44:34.686Z,37.00
2023-05-02T18:46:36.371Z,37.11
2023-05-02T18:48:38.689Z,37.54
2023-05-02T18:50:40.467Z,37.19
2023-05-02T18:52:42.060Z,37.03
2023-05-02T18:54:43.719Z,37.37
2023-05-02T18:56:45.406Z,37.24
2023-05-02T18:58:47.580Z,37.30
2023-05-02T19:00:49.312Z,37.25
2023-05-02T19:02:54.160Z,37.27
2023-05-02T19:04:55.980Z,37.17
2023-05-02T19:06:57.560Z,37.10
2023-05-02T19:08:59.615Z,37.31
2023-05-02T19:11:01.196Z,37.42
2023-05-02T19:13:02.774Z,37.28
2023-05-02T19:15:06.726Z,37.22
2023-05-02T19:17:08.443Z,37.28
2023-05-02T19:19:10.311Z,37.09
2023-05-02T19:21:13.663Z,37.29
2023-05-02T19:23:20.510Z,36.92
2023-05-02T19:25:22.426Z,37.17
2023-05-02T19:27:24.005Z,36.88
2023-05-02T19:29:26.072Z,36.92
2023-05-02T19:31:28.154Z,36.79
2023-05-02T19:33:29.804Z,36.80
2023-05-02T19:35:34.024Z,37.28
2023-05-02T19:37:35.727Z,37.13
2023-05-02T19:39:37.328Z,37.08
2023-05-02T19:41:40.159Z,37.08
2023-05-02T19:43:41.754Z,37.14
2023-05-02T19:45:43.454Z,37.32
2023-05-02T19:47:45.654Z,37.62
2023-05-02T19:49:47.304Z,37.33
2023-05-02T19:51:49.357Z,37.37
2023-05-02T19:53:51.634Z,37.44
2023-05-02T19:55:53.557Z,37.45
2023-05-02T19:57:55.165Z,37.57
2023-05-02T19:59:56.817Z,37.51
2023-05-02T20:01:58.394Z,37.74
2023-05-02T20:04:00.373Z,37.96
2023-05-02T20:06:02.035Z,38.01
2023-05-02T20:08:03.712Z,37.91
2023-05-02T20:10:06.136Z,38.28
2023-05-02T20:12:07.802Z,38.02
2023-05-02T20:14:09.429Z,38.24
2023-05-02T20:16:11.322Z,38.01
2023-05-02T20:18:12.971Z,38.32
2023-05-02T20:20:14.719Z,38.16
2023-05-02T20:22:16.366Z,38.44
2023-05-02T20:24:17.990Z,38.34
2023-05-02T20:26:21.163Z,38.43
2023-05-02T20:28:22.774Z,38.70
2023-05-02T20:30:25.306Z,38.91
2023-05-02T20:32:27.035Z,38.87
2023-05-02T20:34:28.708Z,39.13
2023-05-02T20:36:31.103Z,39.32
2023-05-02T20:38:32.679Z,39.53
2023-05-02T20:40:34.856Z,39.87
2023-05-02T20:42:38.436Z,39.68
2023-05-02T20:44:40.065Z,40.15
2023-05-02T20:46:42.118Z,40.03
2023-05-02T20:48:43.801Z,40.05
2023-05-02T20:50:53.449Z,40.07
2023-05-02T20:52:55.331Z,40.22
2023-05-02T20:54:56.985Z,40.51
2023-05-02T20:56:58.610Z,40.68
2023-05-02T20:59:00.217Z,41.17
2023-05-02T21:01:01.957Z,41.10
2023-05-02T21:03:03.679Z,41.19
2023-05-02T21:05:05.642Z,41.23
2023-05-02T21:07:07.211Z,41.35
2023-05-02T21:09:09.536Z,41.38
2023-05-02T21:11:13.648Z,41.72
2023-05-02T21:13:15.376Z,41.64
2023-05-02T21:15:17.056Z,41.44
2023-05-02T21:17:18.622Z,41.88
2023-05-02T21:19:20.693Z,41.74
2023-05-02T21:21:22.948Z,41.73
2023-05-02T21:23:24.551Z,41.57
2023-05-02T21:25:26.095Z,41.68
2023-05-02T21:27:27.772Z,41.89
2023-05-02T21:29:29.360Z,41.83
2023-05-02T21:31:32.228Z,41.89
2023-05-02T21:33:33.940Z,41.83
2023-05-02T21:35:35.542Z,41.97
2023-05-02T21:37:37.173Z,42.33
2023-05-02T21:39:39.085Z,42.29
2023-05-02T21:41:40.744Z,42.50
2023-05-02T21:43:42.479Z,42.68
2023-05-02T21:45:47.551Z,42.39
2023-05-02T21:47:49.230Z,42.56
2023-05-02T21:49:50.842Z,42.71
2023-05-02T21:51:52.398Z,42.63
2023-05-02T21:53:54.145Z,42.98
2023-05-02T21:55:55.755Z,43.09
2023-05-02T21:57:57.817Z,42.71
2023-05-02T21:59:59.482Z,43.09
2023-05-02T22:02:01.124Z,43.24
2023-05-02T22:04:02.906Z,43.27
2023-05-02T22:06:06.694Z,43.23
2023-05-02T22:08:09.916Z,43.23
2023-05-02T22:10:11.975Z,43.09
2023-05-02T22:12:13.488Z,43.23
2023-05-02T22:14:15.119Z,43.37
2023-05-02T22:16:17.241Z,43.61
2023-05-02T22:18:18.952Z,43.49
2023-05-02T22:20:21.908Z,43.58
2023-05-02T22:22:23.516Z,43.99
2023-05-02T22:24:25.073Z,43.93
2023-05-02T22:26:26.691Z,43.96
2023-05-02T22:28:28.311Z,43.73
2023-05-02T22:30:29.980Z,44.03
2023-05-02T22:32:31.650Z,43.87
2023-05-02T22:34:33.291Z,43.97
2023-05-02T22:36:35.829Z,43.52
2023-05-02T22:38:39.904Z,44.15
2023-05-02T22:40:41.593Z,43.52
2023-05-02T22:42:43.314Z,43.56
2023-05-02T22:44:53.987Z,44.11
2023-05-02T22:46:56.600Z,43.96
2023-05-02T22:48:58.224Z,43.21
2023-05-02T22:50:59.774Z,43.66
2023-05-02T22:53:03.932Z,43.90
2023-05-02T22:55:09.264Z,43.88
2023-05-02T22:57:11.048Z,43.75
2023-05-02T22:59:12.677Z,43.59
2023-05-02T23:01:14.398Z,43.74
2023-05-02T23:03:16.210Z,43.15
2023-05-02T23:05:17.794Z,43.90
2023-05-02T23:07:20.105Z,43.42
2023-05-02T23:09:21.749Z,43.37
2023-05-02T23:11:23.398Z,43.22
2023-05-02T23:13:26.092Z,43.36
2023-05-02T23:15:27.834Z,43.69
2023-05-02T23:17:29.481Z,43.77
2023-05-02T23:19:31.124Z,43.26
2023-05-02T23:21:32.752Z,43.10
2023-05-02T23:23:34.320Z,43.15
2023-05-02T23:25:36.711Z,43.06
2023-05-02T23:27:38.326Z,43.15
2023-05-02T23:29:39.910Z,43.06
2023-05-02T23:31:41.578Z,42.75
2023-05-02T23:33:43.342Z,42.94
2023-05-02T23:35:44.967Z,43.17
2023-05-02T23:37:46.620Z,42.86
2023-05-02T23:39:48.977Z,43.07
2023-05-02T23:41:50.694Z,42.86
2023-05-02T23:43:52.278Z,42.96
2023-05-02T23:45:53.948Z,42.45
2023-05-02T23:47:55.895Z,43.06
2023-05-02T23:49:57.525Z,42.86
2023-05-02T23:51:59.132Z,42.28
2023-05-02T23:54:01.535Z,42.57
2023-05-02T23:56:03.227Z,42.49
2023-05-02T23:58:04.800Z,42.47
